Weather at Kotamubagu/Mopait Airport

Public forecast

Using degrees Celsius for public forecast. Weather courtesy of forecast.io.

Closest aviation weather report (METAR) to Kotamubagu/Mopait Airport

Closest report is Sam Ratulangi Airport, 65.0 nm (120.4 km) NE. Retrieved 2021/10/23 04:30 UTC (0 seconds ago):

WAMM 230430Z VRB02KT 9999 SCT018 29/25 Q1010 RERA NOSIG

Closest aviation forecast (TAF) to Kotamubagu/Mopait Airport

Closest forecast is Sam Ratulangi Airport, 65.0 nm (120.4 km) NE. Retrieved 2021-10-23 00:42 UTC (4 hours ago):

TAF WAMM 222300Z 2300/2406 26008KT 9999 SCT020 PROB40 TEMPO 2305/2308 5000 RA FEW017CB BECMG 2310/2312 VRB03KT